sensor_id;sensor_type;location;lat;lon;timestamp;pressure;altitude;pressure_sealevel;temperature;humidity
43420;BME280;29017;51.514;-0.178;2022-07-29T00:00:57;101386.31;;;19.53;63.36
43420;BME280;29017;51.514;-0.178;2022-07-29T00:03:24;101380.34;;;19.51;63.36
43420;BME280;29017;51.514;-0.178;2022-07-29T00:05:51;101373.16;;;19.51;63.54
43420;BME280;29017;51.514;-0.178;2022-07-29T00:08:19;101374.19;;;19.50;63.75
43420;BME280;29017;51.514;-0.178;2022-07-29T00:10:47;101375.00;;;19.51;63.94
43420;BME280;29017;51.514;-0.178;2022-07-29T00:13:14;101368.03;;;19.50;64.25
43420;BME280;29017;51.514;-0.178;2022-07-29T00:15:41;101369.06;;;19.49;64.28
43420;BME280;29017;51.514;-0.178;2022-07-29T00:18:08;101367.13;;;19.43;64.55
43420;BME280;29017;51.514;-0.178;2022-07-29T00:20:35;101367.97;;;19.43;64.37
43420;BME280;29017;51.514;-0.178;2022-07-29T00:23:01;101374.97;;;19.44;64.56
43420;BME280;29017;51.514;-0.178;2022-07-29T00:25:28;101371.41;;;19.37;64.69
43420;BME280;29017;51.514;-0.178;2022-07-29T00:27:59;101369.75;;;19.36;64.96
43420;BME280;29017;51.514;-0.178;2022-07-29T00:30:26;101369.56;;;19.38;65.94
43420;BME280;29017;51.514;-0.178;2022-07-29T00:32:53;101360.72;;;19.37;65.51
43420;BME280;29017;51.514;-0.178;2022-07-29T00:35:19;101369.56;;;19.38;65.46
43420;BME280;29017;51.514;-0.178;2022-07-29T00:38:05;101366.91;;;19.38;65.82
43420;BME280;29017;51.514;-0.178;2022-07-29T00:40:32;101358.91;;;19.38;65.73
43420;BME280;29017;51.514;-0.178;2022-07-29T00:42:59;101357.88;;;19.39;65.96
43420;BME280;29017;51.514;-0.178;2022-07-29T00:45:25;101353.16;;;19.41;65.99
43420;BME280;29017;51.514;-0.178;2022-07-29T00:47:58;101354.19;;;19.40;66.22
43420;BME280;29017;51.514;-0.178;2022-07-29T00:50:25;101350.06;;;19.37;66.08
43420;BME280;29017;51.514;-0.178;2022-07-29T00:52:52;101342.06;;;19.37;66.33
43420;BME280;29017;51.514;-0.178;2022-07-29T00:55:20;101346.56;;;19.37;66.24
43420;BME280;29017;51.514;-0.178;2022-07-29T00:57:47;101346.56;;;19.37;66.52
43420;BME280;29017;51.514;-0.178;2022-07-29T01:00:20;101346.75;;;19.35;66.41
43420;BME280;29017;51.514;-0.178;2022-07-29T01:02:47;101347.78;;;19.34;66.82
43420;BME280;29017;51.514;-0.178;2022-07-29T01:05:17;101343.47;;;19.33;67.05
43420;BME280;29017;51.514;-0.178;2022-07-29T01:07:46;101339.34;;;19.31;66.82
43420;BME280;29017;51.514;-0.178;2022-07-29T01:10:14;101336.47;;;19.32;66.90
43420;BME280;29017;51.514;-0.178;2022-07-29T01:12:43;101342.47;;;19.34;66.74
43420;BME280;29017;51.514;-0.178;2022-07-29T01:15:11;101338.13;;;19.33;66.89
43420;BME280;29017;51.514;-0.178;2022-07-29T01:17:56;101339.78;;;19.34;66.99
43420;BME280;29017;51.514;-0.178;2022-07-29T01:30:59;101353.50;;;19.31;67.05
43420;BME280;29017;51.514;-0.178;2022-07-29T01:33:30;101347.56;;;19.29;67.20
43420;BME280;29017;51.514;-0.178;2022-07-29T01:36:31;101348.38;;;19.30;67.42
43420;BME280;29017;51.514;-0.178;2022-07-29T01:39:16;101350.00;;;19.31;67.62
43420;BME280;29017;51.514;-0.178;2022-07-29T01:41:52;101351.66;;;19.32;67.58
43420;BME280;29017;51.514;-0.178;2022-07-29T01:44:47;101349.41;;;19.29;67.48
43420;BME280;29017;51.514;-0.178;2022-07-29T01:47:19;101339.94;;;19.26;67.79
43420;BME280;29017;51.514;-0.178;2022-07-29T01:49:49;101337.66;;;19.23;68.23
43420;BME280;29017;51.514;-0.178;2022-07-29T01:52:29;101346.50;;;19.23;67.95
43420;BME280;29017;51.514;-0.178;2022-07-29T01:55:03;101339.50;;;19.22;68.17
43420;BME280;29017;51.514;-0.178;2022-07-29T01:57:32;101341.16;;;19.23;67.99
43420;BME280;29017;51.514;-0.178;2022-07-29T02:00:02;101351.19;;;19.21;67.98
43420;BME280;29017;51.514;-0.178;2022-07-29T02:02:31;101342.97;;;19.16;68.38
43420;BME280;29017;51.514;-0.178;2022-07-29T02:05:00;101346.84;;;19.14;68.47
43420;BME280;29017;51.514;-0.178;2022-07-29T02:07:31;101332.88;;;19.12;68.61
43420;BME280;29017;51.514;-0.178;2022-07-29T02:10:00;101341.91;;;19.11;69.01
43420;BME280;29017;51.514;-0.178;2022-07-29T02:12:29;101340.25;;;19.10;68.92
43420;BME280;29017;51.514;-0.178;2022-07-29T02:15:00;101341.47;;;19.07;68.91
43420;BME280;29017;51.514;-0.178;2022-07-29T02:17:37;101333.66;;;19.06;68.96
43420;BME280;29017;51.514;-0.178;2022-07-29T02:20:07;101334.66;;;19.05;69.21
43420;BME280;29017;51.514;-0.178;2022-07-29T02:22:37;101335.72;;;19.04;69.17
43420;BME280;29017;51.514;-0.178;2022-07-29T02:25:06;101335.50;;;19.05;69.16
43420;BME280;29017;51.514;-0.178;2022-07-29T02:27:40;101341.66;;;19.06;69.41
43420;BME280;29017;51.514;-0.178;2022-07-29T02:30:09;101345.16;;;19.06;69.25
43420;BME280;29017;51.514;-0.178;2022-07-29T02:32:39;101338.38;;;19.04;69.44
43420;BME280;29017;51.514;-0.178;2022-07-29T02:35:09;101332.22;;;19.03;69.41
43420;BME280;29017;51.514;-0.178;2022-07-29T02:37:39;101340.59;;;19.00;69.62
43420;BME280;29017;51.514;-0.178;2022-07-29T02:40:10;101332.56;;;18.94;69.70
43420;BME280;29017;51.514;-0.178;2022-07-29T02:42:41;101328.84;;;18.95;69.73
43420;BME280;29017;51.514;-0.178;2022-07-29T02:45:09;101336.84;;;18.95;70.11
43420;BME280;29017;51.514;-0.178;2022-07-29T02:50:19;101336.25;;;18.93;70.10
43420;BME280;29017;51.514;-0.178;2022-07-29T02:52:52;101339.75;;;18.93;70.01
43420;BME280;29017;51.514;-0.178;2022-07-29T02:55:34;101341.59;;;18.93;70.13
43420;BME280;29017;51.514;-0.178;2022-07-29T03:00:36;101340.56;;;18.94;70.47
43420;BME280;29017;51.514;-0.178;2022-07-29T03:03:09;101342.41;;;18.93;70.09
43420;BME280;29017;51.514;-0.178;2022-07-29T03:05:37;101338.28;;;18.91;70.45
43420;BME280;29017;51.514;-0.178;2022-07-29T03:08:07;101342.53;;;18.85;70.22
43420;BME280;29017;51.514;-0.178;2022-07-29T03:10:37;101338.44;;;18.83;70.26
43420;BME280;29017;51.514;-0.178;2022-07-29T03:13:06;101340.28;;;18.82;70.46
43420;BME280;29017;51.514;-0.178;2022-07-29T03:15:34;101337.19;;;18.78;70.18
43420;BME280;29017;51.514;-0.178;2022-07-29T03:18:02;101345.19;;;18.78;70.35
43420;BME280;29017;51.514;-0.178;2022-07-29T03:20:30;101346.56;;;18.74;70.12
43420;BME280;29017;51.514;-0.178;2022-07-29T03:22:57;101341.56;;;18.65;70.10
43420;BME280;29017;51.514;-0.178;2022-07-29T03:25:24;101348.31;;;18.61;70.65
43420;BME280;29017;51.514;-0.178;2022-07-29T03:27:51;101359.38;;;18.58;70.88
43420;BME280;29017;51.514;-0.178;2022-07-29T03:30:18;101343.72;;;18.55;71.07
43420;BME280;29017;51.514;-0.178;2022-07-29T03:32:48;101359.91;;;18.53;71.03
43420;BME280;29017;51.514;-0.178;2022-07-29T03:35:18;101351.72;;;18.55;70.97
43420;BME280;29017;51.514;-0.178;2022-07-29T03:37:46;101343.09;;;18.53;71.05
43420;BME280;29017;51.514;-0.178;2022-07-29T03:40:19;101351.44;;;18.50;71.10
43420;BME280;29017;51.514;-0.178;2022-07-29T03:42:48;101352.50;;;18.49;70.92
43420;BME280;29017;51.514;-0.178;2022-07-29T03:45:18;101344.69;;;18.47;71.25
43420;BME280;29017;51.514;-0.178;2022-07-29T03:47:48;101340.16;;;18.48;71.28
43420;BME280;29017;51.514;-0.178;2022-07-29T03:50:24;101351.84;;;18.47;71.38
43420;BME280;29017;51.514;-0.178;2022-07-29T03:52:50;101339.16;;;18.49;71.76
43420;BME280;29017;51.514;-0.178;2022-07-29T03:55:17;101341.63;;;18.50;71.36
43420;BME280;29017;51.514;-0.178;2022-07-29T03:57:45;101336.09;;;18.52;70.96
43420;BME280;29017;51.514;-0.178;2022-07-29T04:00:14;101333.00;;;18.48;71.02
43420;BME280;29017;51.514;-0.178;2022-07-29T04:02:43;101343.41;;;18.43;71.51
43420;BME280;29017;51.514;-0.178;2022-07-29T04:05:16;101343.16;;;18.38;71.48
43420;BME280;29017;51.514;-0.178;2022-07-29T04:07:44;101350.50;;;18.36;71.78
43420;BME280;29017;51.514;-0.178;2022-07-29T04:10:12;101350.69;;;18.34;72.25
43420;BME280;29017;51.514;-0.178;2022-07-29T04:12:39;101355.84;;;18.36;72.02
43420;BME280;29017;51.514;-0.178;2022-07-29T04:15:07;101352.00;;;18.38;71.83
43420;BME280;29017;51.514;-0.178;2022-07-29T04:17:34;101351.59;;;18.42;71.86
43420;BME280;29017;51.514;-0.178;2022-07-29T04:20:01;101356.09;;;18.41;71.96
43420;BME280;29017;51.514;-0.178;2022-07-29T04:22:29;101355.09;;;18.42;71.67
43420;BME280;29017;51.514;-0.178;2022-07-29T04:24:56;101357.09;;;18.40;71.69
43420;BME280;29017;51.514;-0.178;2022-07-29T04:27:29;101352.41;;;18.42;72.08
43420;BME280;29017;51.514;-0.178;2022-07-29T04:29:56;101361.03;;;18.44;71.62
43420;BME280;29017;51.514;-0.178;2022-07-29T04:32:24;101359.41;;;18.43;71.40
43420;BME280;29017;51.514;-0.178;2022-07-29T04:34:51;101362.25;;;18.42;71.40
43420;BME280;29017;51.514;-0.178;2022-07-29T04:37:19;101364.28;;;18.39;71.83
43420;BME280;29017;51.514;-0.178;2022-07-29T04:39:46;101358.31;;;18.37;71.74
43420;BME280;29017;51.514;-0.178;2022-07-29T04:42:14;101361.59;;;18.39;71.60
43420;BME280;29017;51.514;-0.178;2022-07-29T04:44:42;101366.09;;;18.39;72.26
43420;BME280;29017;51.514;-0.178;2022-07-29T04:47:09;101365.09;;;18.40;71.68
43420;BME280;29017;51.514;-0.178;2022-07-29T04:49:39;101356.09;;;18.41;71.73
43420;BME280;29017;51.514;-0.178;2022-07-29T04:52:06;101363.25;;;18.41;71.91
43420;BME280;29017;51.514;-0.178;2022-07-29T04:54:33;101364.09;;;18.41;71.74
43420;BME280;29017;51.514;-0.178;2022-07-29T04:57:00;101360.41;;;18.42;71.85
43420;BME280;29017;51.514;-0.178;2022-07-29T04:59:27;101370.25;;;18.42;71.83
43420;BME280;29017;51.514;-0.178;2022-07-29T05:01:54;101368.22;;;18.44;72.15
43420;BME280;29017;51.514;-0.178;2022-07-29T05:04:21;101369.03;;;18.44;71.79
43420;BME280;29017;51.514;-0.178;2022-07-29T05:06:49;101359.84;;;18.47;71.97
43420;BME280;29017;51.514;-0.178;2022-07-29T05:09:16;101365.56;;;18.44;71.82
43420;BME280;29017;51.514;-0.178;2022-07-29T05:11:43;101365.56;;;18.44;71.84
43420;BME280;29017;51.514;-0.178;2022-07-29T05:14:10;101362.25;;;18.42;72.03
43420;BME280;29017;51.514;-0.178;2022-07-29T05:16:37;101360.41;;;18.42;71.97
43420;BME280;29017;51.514;-0.178;2022-07-29T05:19:06;101353.03;;;18.44;72.72
43420;BME280;29017;51.514;-0.178;2022-07-29T05:21:39;101357.09;;;18.40;72.55
43420;BME280;29017;51.514;-0.178;2022-07-29T05:24:06;101354.84;;;18.37;72.63
43420;BME280;29017;51.514;-0.178;2022-07-29T05:26:33;101359.72;;;18.33;73.02
43420;BME280;29017;51.514;-0.178;2022-07-29T05:29:00;101357.59;;;18.29;73.38
43420;BME280;29017;51.514;-0.178;2022-07-29T05:31:27;101363.50;;;18.24;73.48
43420;BME280;29017;51.514;-0.178;2022-07-29T05:33:56;101359.84;;;18.25;73.73
43420;BME280;29017;51.514;-0.178;2022-07-29T05:36:23;101362.31;;;18.27;74.11
43420;BME280;29017;51.514;-0.178;2022-07-29T05:38:50;101361.75;;;18.31;73.63
43420;BME280;29017;51.514;-0.178;2022-07-29T05:41:19;101364.59;;;18.30;73.63
43420;BME280;29017;51.514;-0.178;2022-07-29T05:43:54;101364.22;;;18.33;73.84
43420;BME280;29017;51.514;-0.178;2022-07-29T05:46:23;101372.00;;;18.34;73.99
43420;BME280;29017;51.514;-0.178;2022-07-29T05:48:49;101368.34;;;18.35;74.05
43420;BME280;29017;51.514;-0.178;2022-07-29T05:51:17;101365.31;;;18.38;74.17
43420;BME280;29017;51.514;-0.178;2022-07-29T05:53:44;101375.19;;;18.45;74.32
43420;BME280;29017;51.514;-0.178;2022-07-29T05:56:19;101370.09;;;18.50;74.18
43420;BME280;29017;51.514;-0.178;2022-07-29T05:58:46;101373.06;;;18.55;74.15
43420;BME280;29017;51.514;-0.178;2022-07-29T06:01:13;101381.50;;;18.58;73.71
43420;BME280;29017;51.514;-0.178;2022-07-29T06:03:40;101375.59;;;18.63;73.57
43420;BME280;29017;51.514;-0.178;2022-07-29T06:06:08;101374.59;;;18.64;74.15
43420;BME280;29017;51.514;-0.178;2022-07-29T06:08:37;101383.84;;;18.68;74.28
43420;BME280;29017;51.514;-0.178;2022-07-29T06:11:04;101383.22;;;18.66;73.83
43420;BME280;29017;51.514;-0.178;2022-07-29T06:13:32;101382.00;;;18.68;73.93
43420;BME280;29017;51.514;-0.178;2022-07-29T06:15:59;101386.06;;;18.64;74.53
43420;BME280;29017;51.514;-0.178;2022-07-29T06:18:27;101382.13;;;18.60;74.58
43420;BME280;29017;51.514;-0.178;2022-07-29T06:20:54;101396.09;;;18.62;74.88
43420;BME280;29017;51.514;-0.178;2022-07-29T06:23:21;101395.09;;;18.63;74.83
43420;BME280;29017;51.514;-0.178;2022-07-29T06:25:48;101407.03;;;18.67;74.71
43420;BME280;29017;51.514;-0.178;2022-07-29T06:28:15;101407.28;;;18.72;75.09
43420;BME280;29017;51.514;-0.178;2022-07-29T06:30:43;101406.50;;;18.78;75.17
43420;BME280;29017;51.514;-0.178;2022-07-29T06:33:16;101402.25;;;18.84;75.17
43420;BME280;29017;51.514;-0.178;2022-07-29T06:35:43;101399.63;;;18.91;74.44
43420;BME280;29017;51.514;-0.178;2022-07-29T06:38:19;101401.91;;;18.94;74.78
43420;BME280;29017;51.514;-0.178;2022-07-29T06:41:00;101403.78;;;19.00;74.22
43420;BME280;29017;51.514;-0.178;2022-07-29T06:43:38;101399.94;;;19.02;74.41
43420;BME280;29017;51.514;-0.178;2022-07-29T06:46:20;101397.06;;;19.04;74.30
43420;BME280;29017;51.514;-0.178;2022-07-29T06:48:48;101402.19;;;19.05;74.54
43420;BME280;29017;51.514;-0.178;2022-07-29T06:51:16;101397.31;;;19.09;74.73
43420;BME280;29017;51.514;-0.178;2022-07-29T06:53:56;101400.22;;;19.14;74.85
43420;BME280;29017;51.514;-0.178;2022-07-29T06:56:38;101398.63;;;19.19;74.79
43420;BME280;29017;51.514;-0.178;2022-07-29T06:59:09;101402.53;;;19.23;74.45
43420;BME280;29017;51.514;-0.178;2022-07-29T07:01:38;101401.97;;;19.28;74.66
43420;BME280;29017;51.514;-0.178;2022-07-29T07:04:06;101407.53;;;19.33;74.39
43420;BME280;29017;51.514;-0.178;2022-07-29T07:06:34;101405.72;;;19.40;74.25
43420;BME280;29017;51.514;-0.178;2022-07-29T07:09:01;101401.69;;;19.44;74.00
43420;BME280;29017;51.514;-0.178;2022-07-29T07:11:29;101408.47;;;19.47;73.95
43420;BME280;29017;51.514;-0.178;2022-07-29T07:13:56;101402.75;;;19.50;74.42
43420;BME280;29017;51.514;-0.178;2022-07-29T07:16:29;101404.19;;;19.52;74.01
43420;BME280;29017;51.514;-0.178;2022-07-29T07:18:56;101411.00;;;19.55;73.94
43420;BME280;29017;51.514;-0.178;2022-07-29T07:21:23;101413.25;;;19.58;74.28
43420;BME280;29017;51.514;-0.178;2022-07-29T07:23:54;101410.16;;;19.61;74.25
43420;BME280;29017;51.514;-0.178;2022-07-29T07:26:22;101412.47;;;19.64;73.62
43420;BME280;29017;51.514;-0.178;2022-07-29T07:28:49;101421.50;;;19.63;73.40
43420;BME280;29017;51.514;-0.178;2022-07-29T07:31:16;101420.47;;;19.64;73.52
43420;BME280;29017;51.514;-0.178;2022-07-29T07:33:44;101428.31;;;19.66;73.54
43420;BME280;29017;51.514;-0.178;2022-07-29T07:36:20;101421.09;;;19.66;73.43
43420;BME280;29017;51.514;-0.178;2022-07-29T07:38:47;101419.69;;;19.70;73.28
43420;BME280;29017;51.514;-0.178;2022-07-29T07:41:14;101422.38;;;19.77;72.69
43420;BME280;29017;51.514;-0.178;2022-07-29T07:43:41;101424.22;;;19.76;72.04
43420;BME280;29017;51.514;-0.178;2022-07-29T07:46:08;101432.50;;;19.88;74.19
43420;BME280;29017;51.514;-0.178;2022-07-29T07:48:35;101426.66;;;20.19;72.32
43420;BME280;29017;51.514;-0.178;2022-07-29T07:51:02;101433.34;;;20.36;72.51
43420;BME280;29017;51.514;-0.178;2022-07-29T07:53:30;101431.28;;;20.44;73.31
43420;BME280;29017;51.514;-0.178;2022-07-29T07:55:58;101428.81;;;20.49;71.31
43420;BME280;29017;51.514;-0.178;2022-07-29T07:58:36;101433.34;;;20.62;71.63
43420;BME280;29017;51.514;-0.178;2022-07-29T08:01:03;101435.25;;;20.75;69.59
43420;BME280;29017;51.514;-0.178;2022-07-29T08:03:30;101424.13;;;20.78;66.75
43420;BME280;29017;51.514;-0.178;2022-07-29T08:05:57;101427.03;;;20.76;67.39
43420;BME280;29017;51.514;-0.178;2022-07-29T08:08:24;101429.03;;;20.68;65.25
43420;BME280;29017;51.514;-0.178;2022-07-29T08:10:51;101421.25;;;20.66;64.26
43420;BME280;29017;51.514;-0.178;2022-07-29T08:13:20;101420.63;;;20.64;64.12
43420;BME280;29017;51.514;-0.178;2022-07-29T08:15:47;101427.81;;;20.64;60.49
43420;BME280;29017;51.514;-0.178;2022-07-29T08:18:24;101431.31;;;20.64;62.72
43420;BME280;29017;51.514;-0.178;2022-07-29T08:20:52;101423.91;;;20.60;62.20
43420;BME280;29017;51.514;-0.178;2022-07-29T08:23:19;101433.78;;;20.59;62.66
43420;BME280;29017;51.514;-0.178;2022-07-29T08:25:46;101432.94;;;20.59;62.37
43420;BME280;29017;51.514;-0.178;2022-07-29T08:28:16;101438.72;;;20.62;63.41
43420;BME280;29017;51.514;-0.178;2022-07-29T08:30:43;101436.84;;;20.63;61.13
43420;BME280;29017;51.514;-0.178;2022-07-29T08:33:11;101437.91;;;20.68;61.21
43420;BME280;29017;51.514;-0.178;2022-07-29T08:35:38;101432.34;;;20.70;61.15
43420;BME280;29017;51.514;-0.178;2022-07-29T08:38:05;101434.63;;;20.79;60.96
43420;BME280;29017;51.514;-0.178;2022-07-29T08:40:32;101436.69;;;20.84;60.74
43420;BME280;29017;51.514;-0.178;2022-07-29T08:43:08;101441.63;;;20.87;58.69
43420;BME280;29017;51.514;-0.178;2022-07-29T08:45:47;101444.94;;;20.96;59.55
43420;BME280;29017;51.514;-0.178;2022-07-29T08:48:18;101439.38;;;20.97;59.49
43420;BME280;29017;51.514;-0.178;2022-07-29T08:50:47;101435.06;;;20.96;57.56
43420;BME280;29017;51.514;-0.178;2022-07-29T08:53:16;101424.75;;;20.93;58.66
43420;BME280;29017;51.514;-0.178;2022-07-29T08:55:46;101436.50;;;20.92;59.43
43420;BME280;29017;51.514;-0.178;2022-07-29T08:58:16;101429.06;;;20.94;59.81
43420;BME280;29017;51.514;-0.178;2022-07-29T09:00:51;101429.28;;;20.99;59.98
43420;BME280;29017;51.514;-0.178;2022-07-29T09:03:23;101425.16;;;21.03;60.23
43420;BME280;29017;51.514;-0.178;2022-07-29T09:05:51;101425.16;;;21.10;59.60
43420;BME280;29017;51.514;-0.178;2022-07-29T09:08:20;101431.38;;;21.17;57.10
43420;BME280;29017;51.514;-0.178;2022-07-29T09:10:47;101423.75;;;21.20;55.44
43420;BME280;29017;51.514;-0.178;2022-07-29T09:13:15;101424.13;;;21.24;54.58
43420;BME280;29017;51.514;-0.178;2022-07-29T09:15:43;101425.97;;;21.43;53.00
43420;BME280;29017;51.514;-0.178;2022-07-29T09:18:11;101420.97;;;21.66;52.03
43420;BME280;29017;51.514;-0.178;2022-07-29T09:20:56;101423.13;;;21.89;52.34
43420;BME280;29017;51.514;-0.178;2022-07-29T09:24:07;101434.41;;;22.11;50.91
43420;BME280;29017;51.514;-0.178;2022-07-29T09:26:44;101423.03;;;22.22;51.28
43420;BME280;29017;51.514;-0.178;2022-07-29T09:29:20;101425.69;;;22.29;50.89
43420;BME280;29017;51.514;-0.178;2022-07-29T09:31:51;101423.16;;;22.34;51.10
43420;BME280;29017;51.514;-0.178;2022-07-29T09:34:26;101422.13;;;22.35;51.62
43420;BME280;29017;51.514;-0.178;2022-07-29T09:36:55;101424.16;;;22.39;51.43
43420;BME280;29017;51.514;-0.178;2022-07-29T09:39:41;101422.06;;;22.41;51.44
43420;BME280;29017;51.514;-0.178;2022-07-29T09:42:12;101421.88;;;22.43;51.44
43420;BME280;29017;51.514;-0.178;2022-07-29T09:44:47;101420.00;;;22.43;51.73
43420;BME280;29017;51.514;-0.178;2022-07-29T09:47:16;101429.88;;;22.49;50.86
43420;BME280;29017;51.514;-0.178;2022-07-29T09:49:57;101416.22;;;22.51;51.08
43420;BME280;29017;51.514;-0.178;2022-07-29T09:52:27;101430.06;;;22.54;51.50
43420;BME280;29017;51.514;-0.178;2022-07-29T09:55:08;101417.03;;;22.58;50.60
43420;BME280;29017;51.514;-0.178;2022-07-29T09:57:43;101418.59;;;22.66;51.11
43420;BME280;29017;51.514;-0.178;2022-07-29T10:00:18;101418.38;;;22.74;51.10
43420;BME280;29017;51.514;-0.178;2022-07-29T10:02:46;101425.13;;;22.83;51.01
43420;BME280;29017;51.514;-0.178;2022-07-29T10:05:22;101428.75;;;22.95;50.77
43420;BME280;29017;51.514;-0.178;2022-07-29T10:07:52;101420.63;;;23.01;50.43
43420;BME280;29017;51.514;-0.178;2022-07-29T10:10:26;101421.03;;;23.05;50.18
43420;BME280;29017;51.514;-0.178;2022-07-29T10:13:00;101420.56;;;23.08;50.15
43420;BME280;29017;51.514;-0.178;2022-07-29T10:15:38;101415.00;;;23.10;51.49
43420;BME280;29017;51.514;-0.178;2022-07-29T10:18:08;101409.53;;;23.16;49.61
43420;BME280;29017;51.514;-0.178;2022-07-29T10:20:35;101408.81;;;23.27;48.03
43420;BME280;29017;51.514;-0.178;2022-07-29T10:23:03;101411.44;;;23.34;47.88
43420;BME280;29017;51.514;-0.178;2022-07-29T10:25:31;101418.63;;;23.40;47.17
43420;BME280;29017;51.514;-0.178;2022-07-29T10:27:58;101412.56;;;23.44;47.08
43420;BME280;29017;51.514;-0.178;2022-07-29T10:30:26;101412.75;;;23.50;48.54
43420;BME280;29017;51.514;-0.178;2022-07-29T10:38:52;101414.03;;;23.65;46.93
43420;BME280;29017;51.514;-0.178;2022-07-29T10:44:21;101419.63;;;23.64;45.65
43420;BME280;29017;51.514;-0.178;2022-07-29T10:46:50;101421.19;;;23.53;45.37
43420;BME280;29017;51.514;-0.178;2022-07-29T10:49:25;101417.34;;;23.42;45.12
43420;BME280;29017;51.514;-0.178;2022-07-29T10:52:00;101418.00;;;23.38;46.24
43420;BME280;29017;51.514;-0.178;2022-07-29T10:54:47;101420.25;;;23.41;46.39
43420;BME280;29017;51.514;-0.178;2022-07-29T10:59:45;101416.94;;;23.46;46.71
43420;BME280;29017;51.514;-0.178;2022-07-29T11:05:19;101409.75;;;23.58;45.53
43420;BME280;29017;51.514;-0.178;2022-07-29T11:10:47;101409.38;;;23.54;46.53
43420;BME280;29017;51.514;-0.178;2022-07-29T11:16:09;101413.78;;;23.49;47.14
43420;BME280;29017;51.514;-0.178;2022-07-29T11:21:42;101414.31;;;23.57;47.42
43420;BME280;29017;51.514;-0.178;2022-07-29T11:24:23;101407.47;;;23.61;47.14
43420;BME280;29017;51.514;-0.178;2022-07-29T11:27:18;101409.47;;;23.66;47.32
43420;BME280;29017;51.514;-0.178;2022-07-29T11:32:17;101411.41;;;23.77;45.75
43420;BME280;29017;51.514;-0.178;2022-07-29T11:34:50;101408.25;;;23.80;45.62
43420;BME280;29017;51.514;-0.178;2022-07-29T11:37:44;101415.50;;;23.79;46.22
43420;BME280;29017;51.514;-0.178;2022-07-29T11:40:31;101412.22;;;23.77;45.41
43420;BME280;29017;51.514;-0.178;2022-07-29T11:42:58;101415.34;;;23.74;45.32
43420;BME280;29017;51.514;-0.178;2022-07-29T11:45:26;101409.97;;;23.74;45.62
43420;BME280;29017;51.514;-0.178;2022-07-29T11:48:17;101412.59;;;23.81;44.99
43420;BME280;29017;51.514;-0.178;2022-07-29T11:50:58;101408.41;;;23.85;45.16
43420;BME280;29017;51.514;-0.178;2022-07-29T11:53:25;101407.72;;;23.90;44.33
43420;BME280;29017;51.514;-0.178;2022-07-29T11:55:59;101408.22;;;23.98;44.36
43420;BME280;29017;51.514;-0.178;2022-07-29T11:58:28;101418.09;;;24.04;43.62
43420;BME280;29017;51.514;-0.178;2022-07-29T12:00:56;101404.19;;;24.07;44.43
43420;BME280;29017;51.514;-0.178;2022-07-29T12:03:29;101403.22;;;24.02;44.38
43420;BME280;29017;51.514;-0.178;2022-07-29T12:06:01;101412.00;;;23.97;44.66
43420;BME280;29017;51.514;-0.178;2022-07-29T12:08:29;101403.44;;;24.00;44.96
43420;BME280;29017;51.514;-0.178;2022-07-29T12:10:56;101404.41;;;24.06;45.37
43420;BME280;29017;51.514;-0.178;2022-07-29T12:13:23;101410.38;;;24.08;45.32
43420;BME280;29017;51.514;-0.178;2022-07-29T12:16:03;101404.56;;;24.11;45.35
43420;BME280;29017;51.514;-0.178;2022-07-29T12:18:31;101411.06;;;24.21;44.39
43420;BME280;29017;51.514;-0.178;2022-07-29T12:20:59;101409.69;;;24.31;43.63
43420;BME280;29017;51.514;-0.178;2022-07-29T12:23:30;101405.69;;;24.33;42.83
43420;BME280;29017;51.514;-0.178;2022-07-29T12:26:04;101412.72;;;24.34;43.07
43420;BME280;29017;51.514;-0.178;2022-07-29T12:28:39;101395.19;;;24.32;43.53
43420;BME280;29017;51.514;-0.178;2022-07-29T12:31:13;101391.44;;;24.33;43.50
43420;BME280;29017;51.514;-0.178;2022-07-29T12:34:02;101387.81;;;24.39;43.81
43420;BME280;29017;51.514;-0.178;2022-07-29T12:36:29;101395.81;;;24.45;43.43
43420;BME280;29017;51.514;-0.178;2022-07-29T12:38:56;101390.78;;;24.49;44.27
43420;BME280;29017;51.514;-0.178;2022-07-29T12:41:23;101391.16;;;24.52;43.63
43420;BME280;29017;51.514;-0.178;2022-07-29T12:43:57;101387.06;;;24.61;42.89
43420;BME280;29017;51.514;-0.178;2022-07-29T12:46:27;101380.28;;;24.70;42.28
43420;BME280;29017;51.514;-0.178;2022-07-29T12:48:55;101384.84;;;24.70;42.25
43420;BME280;29017;51.514;-0.178;2022-07-29T12:51:34;101380.50;;;24.69;43.07
43420;BME280;29017;51.514;-0.178;2022-07-29T12:56:33;101375.94;;;24.69;42.92
43420;BME280;29017;51.514;-0.178;2022-07-29T12:59:18;101384.50;;;24.66;42.28
43420;BME280;29017;51.514;-0.178;2022-07-29T13:01:47;101383.91;;;24.64;42.71
43420;BME280;29017;51.514;-0.178;2022-07-29T13:04:32;101379.22;;;24.60;43.83
43420;BME280;29017;51.514;-0.178;2022-07-29T13:07:04;101385.50;;;24.54;43.62
43420;BME280;29017;51.514;-0.178;2022-07-29T13:09:41;101379.31;;;24.53;43.70
43420;BME280;29017;51.514;-0.178;2022-07-29T13:12:11;101381.88;;;24.48;43.18
43420;BME280;29017;51.514;-0.178;2022-07-29T13:14:42;101377.09;;;24.50;43.29
43420;BME280;29017;51.514;-0.178;2022-07-29T13:17:21;101373.34;;;24.51;42.85
43420;BME280;29017;51.514;-0.178;2022-07-29T13:20:07;101374.66;;;24.60;43.71
43420;BME280;29017;51.514;-0.178;2022-07-29T13:22:35;101369.28;;;24.72;43.34
43420;BME280;29017;51.514;-0.178;2022-07-29T13:25:03;101373.63;;;24.85;42.54
43420;BME280;29017;51.514;-0.178;2022-07-29T13:27:31;101380.47;;;24.87;43.06
43420;BME280;29017;51.514;-0.178;2022-07-29T13:30:00;101364.63;;;24.91;42.53
43420;BME280;29017;51.514;-0.178;2022-07-29T13:32:29;101362.16;;;24.89;41.92
43420;BME280;29017;51.514;-0.178;2022-07-29T13:34:58;101356.91;;;24.94;42.22
43420;BME280;29017;51.514;-0.178;2022-07-29T13:37:29;101354.09;;;25.01;42.96
43420;BME280;29017;51.514;-0.178;2022-07-29T13:39:57;101363.47;;;25.10;42.52
43420;BME280;29017;51.514;-0.178;2022-07-29T13:42:26;101365.09;;;25.11;42.27